Time;durP1;ratioP1;P1;durP2;ratioP2;P2;SDS_P1;SDS_P2;PMS_P1;PMS_P2;Temp;Humidity;BMP_temperature;BMP_pressure;BME280_temperature;BME280_humidity;BME280_pressure;Samples;Min_cycle;Max_cycle;Signal;HPM_P1;HPM_P2
2024/01/02 00:01:16;;;;;;;11.40;3.50;;;6.50;99.90;;;;;;5059069;28;20040;-50
2024/01/02 00:03:42;;;;;;;16.20;3.92;;;6.60;99.90;;;;;;5061256;28;20371;-52
2024/01/02 00:06:07;;;;;;;14.73;4.18;;;6.50;99.90;;;;;;5060033;28;20403;-53
2024/01/02 00:08:33;;;;;;;9.95;3.72;;;6.60;99.90;;;;;;5061327;28;20406;-51
2024/01/02 00:10:59;;;;;;;12.02;3.83;;;6.50;99.90;;;;;;5060815;28;20066;-51
2024/01/02 00:13:24;;;;;;;10.52;3.33;;;6.50;99.90;;;;;;5060939;28;20442;-51
2024/01/02 00:15:50;;;;;;;14.20;3.47;;;6.60;99.90;;;;;;5057663;28;20361;-51
2024/01/02 00:18:16;;;;;;;19.10;4.15;;;6.50;99.90;;;;;;5059666;28;20386;-52
2024/01/02 00:20:42;;;;;;;10.68;3.58;;;6.50;99.90;;;;;;5061114;28;20339;-53
2024/01/02 00:23:07;;;;;;;13.98;3.85;;;6.60;99.90;;;;;;5061379;28;20036;-49
2024/01/02 00:25:34;;;;;;;15.52;3.90;;;6.50;99.90;;;;;;5059408;28;20119;-51
2024/01/02 00:27:59;;;;;;;16.98;3.90;;;6.50;99.90;;;;;;5057933;28;20119;-49
2024/01/02 00:30:25;;;;;;;12.77;3.70;;;6.50;99.90;;;;;;5060275;28;20370;-51
2024/01/02 00:32:51;;;;;;;9.35;3.72;;;6.50;99.90;;;;;;5059133;28;20128;-51
2024/01/02 00:35:17;;;;;;;11.00;3.97;;;6.50;99.90;;;;;;5058594;28;20044;-51
2024/01/02 00:37:42;;;;;;;12.73;3.90;;;6.50;99.90;;;;;;5062879;28;20044;-50
2024/01/02 00:40:09;;;;;;;14.15;4.13;;;6.50;99.90;;;;;;5060716;28;20039;-53
2024/01/02 00:42:35;;;;;;;10.27;3.42;;;6.50;99.90;;;;;;5059970;28;20144;-52
2024/01/02 00:45:02;;;;;;;14.05;3.55;;;6.50;99.90;;;;;;5040109;28;20076;-50
2024/01/02 00:47:28;;;;;;;11.40;3.35;;;6.50;99.90;;;;;;5059491;28;20260;-52
2024/01/02 00:49:54;;;;;;;9.50;2.95;;;6.50;99.90;;;;;;5059235;28;20067;-53
2024/01/02 00:52:19;;;;;;;14.05;3.30;;;6.50;99.90;;;;;;5058599;28;20044;-53
2024/01/02 00:54:45;;;;;;;8.00;3.30;;;6.50;99.90;;;;;;5058973;28;20123;-53
2024/01/02 00:57:11;;;;;;;18.00;3.15;;;6.50;99.90;;;;;;5060540;28;20036;-49
2024/01/02 00:59:37;;;;;;;13.75;3.22;;;6.60;99.90;;;;;;5061400;28;20032;-50
2024/01/02 01:02:04;;;;;;;10.57;3.00;;;6.60;99.90;;;;;;5058400;28;20491;-52
2024/01/02 01:04:29;;;;;;;10.50;2.88;;;6.60;99.90;;;;;;5060694;28;20043;-51
2024/01/02 01:06:55;;;;;;;15.15;3.53;;;6.60;99.90;;;;;;5056536;28;20036;-52
2024/01/02 01:09:21;;;;;;;15.57;3.28;;;6.60;99.90;;;;;;5055839;28;20555;-52
2024/01/02 01:11:47;;;;;;;10.27;2.80;;;6.50;99.90;;;;;;5059380;28;20044;-52
2024/01/02 01:14:13;;;;;;;10.35;2.83;;;6.60;99.90;;;;;;5048151;28;20044;-51
2024/01/02 01:16:38;;;;;;;16.48;3.53;;;6.60;99.90;;;;;;5045926;28;20502;-52
2024/01/02 01:19:04;;;;;;;9.45;2.97;;;6.70;99.90;;;;;;5063062;28;20430;-52
2024/01/02 01:21:30;;;;;;;9.60;2.78;;;6.70;99.90;;;;;;5062548;28;20089;-52
2024/01/02 01:23:55;;;;;;;13.02;3.35;;;6.60;99.90;;;;;;5049537;28;20068;-50
2024/01/02 01:26:21;;;;;;;13.95;3.38;;;6.70;99.90;;;;;;5060941;28;20029;-50
2024/01/02 01:28:47;;;;;;;16.70;2.85;;;6.70;99.90;;;;;;5063531;28;20778;-51
2024/01/02 01:31:13;;;;;;;8.65;2.47;;;6.70;99.90;;;;;;5057688;28;20068;-50
2024/01/02 01:33:38;;;;;;;13.65;3.55;;;6.70;99.90;;;;;;5058552;28;20688;-48
2024/01/02 01:36:05;;;;;;;12.10;2.60;;;6.70;99.90;;;;;;5060872;28;20060;-50
2024/01/02 01:38:31;;;;;;;15.18;3.25;;;6.70;99.90;;;;;;5062107;28;20071;-50
2024/01/02 01:40:56;;;;;;;11.73;2.63;;;6.70;99.90;;;;;;5063801;28;20518;-49
2024/01/02 01:43:22;;;;;;;14.82;3.05;;;6.70;99.90;;;;;;5061537;28;20033;-51
2024/01/02 01:45:48;;;;;;;12.13;2.45;;;6.70;99.90;;;;;;5063708;28;20048;-50
2024/01/02 01:48:14;;;;;;;13.68;2.42;;;6.80;99.90;;;;;;5053745;28;20414;-51
2024/01/02 01:50:40;;;;;;;9.13;2.72;;;6.80;99.90;;;;;;5060915;28;20116;-52
2024/01/02 01:53:08;;;;;;;16.10;3.63;;;6.80;99.90;;;;;;5062209;28;20459;-52
2024/01/02 01:55:34;;;;;;;12.63;2.38;;;6.80;99.90;;;;;;5056503;28;20106;-50
2024/01/02 01:58:00;;;;;;;14.57;3.10;;;6.80;99.90;;;;;;5064105;28;20160;-51
2024/01/02 02:00:26;;;;;;;13.98;3.08;;;6.80;99.90;;;;;;5060374;28;20145;-51
2024/01/02 02:02:52;;;;;;;9.50;2.17;;;6.80;99.90;;;;;;5061923;28;20586;-50
2024/01/02 02:05:18;;;;;;;12.27;2.50;;;6.80;99.90;;;;;;5062929;28;20036;-53
2024/01/02 02:07:45;;;;;;;18.40;3.47;;;6.80;99.90;;;;;;5062986;28;20052;-52
2024/01/02 02:10:11;;;;;;;10.38;3.53;;;6.90;99.90;;;;;;5057589;28;20063;-53
2024/01/02 02:12:37;;;;;;;16.80;3.13;;;6.80;99.90;;;;;;5052715;28;20052;-54
2024/01/02 02:15:03;;;;;;;11.48;3.13;;;6.90;99.90;;;;;;5063388;28;20058;-52
2024/01/02 02:17:30;;;;;;;9.35;3.20;;;6.90;99.90;;;;;;5061427;28;20596;-52
2024/01/02 02:19:56;;;;;;;11.40;2.70;;;6.90;99.90;;;;;;5060250;28;20268;-53
2024/01/02 02:22:36;;;;;;;15.02;3.33;;;6.90;99.90;;;;;;5060455;28;20071;-54
2024/01/02 02:25:03;;;;;;;13.95;3.50;;;7.00;99.90;;;;;;5060137;28;20036;-52
2024/01/02 02:27:30;;;;;;;10.00;3.08;;;7.00;99.90;;;;;;5060435;28;20036;-52
2024/01/02 02:29:56;;;;;;;15.60;3.97;;;6.90;99.90;;;;;;5060756;28;20410;-53
2024/01/02 02:32:22;;;;;;;17.02;3.38;;;6.90;99.90;;;;;;5061663;28;20044;-52
2024/01/02 02:34:48;;;;;;;8.68;2.90;;;7.00;99.90;;;;;;5059650;28;20059;-52
2024/01/02 02:37:14;;;;;;;10.82;2.92;;;7.00;99.90;;;;;;5061097;28;20039;-54
2024/01/02 02:39:40;;;;;;;16.13;4.20;;;7.00;99.90;;;;;;5061532;28;20507;-50
2024/01/02 02:42:05;;;;;;;13.45;3.88;;;7.00;99.90;;;;;;5043420;28;20574;-54
2024/01/02 02:44:31;;;;;;;12.80;3.47;;;7.00;99.90;;;;;;5060282;28;20051;-52
2024/01/02 02:46:58;;;;;;;10.80;4.10;;;7.00;99.90;;;;;;5058060;28;20036;-57
2024/01/02 02:49:24;;;;;;;10.38;4.10;;;7.00;99.90;;;;;;5057285;28;20036;-51
2024/01/02 02:51:50;;;;;;;11.18;4.53;;;7.00;99.90;;;;;;5061956;28;20044;-50
2024/01/02 02:54:16;;;;;;;8.63;4.63;;;7.10;99.90;;;;;;5062226;28;20052;-53
2024/01/02 02:56:43;;;;;;;10.18;4.82;;;7.10;99.90;;;;;;5041440;28;20768;-53
2024/01/02 02:59:12;;;;;;;11.88;5.03;;;7.10;99.90;;;;;;5049294;28;20036;-54
2024/01/02 03:01:38;;;;;;;8.23;4.28;;;7.00;99.90;;;;;;5061404;28;20040;-50
2024/01/02 03:04:05;;;;;;;9.80;4.93;;;7.10;99.90;;;;;;5057415;28;20078;-52
2024/01/02 03:06:31;;;;;;;11.23;4.93;;;7.20;99.90;;;;;;5062769;28;20190;-53
2024/01/02 03:08:56;;;;;;;10.73;4.85;;;7.10;99.90;;;;;;5059168;28;20280;-52
2024/01/02 03:11:22;;;;;;;12.88;5.25;;;7.10;99.90;;;;;;5049609;28;20086;-52
2024/01/02 03:13:48;;;;;;;13.30;4.80;;;7.00;99.90;;;;;;5061571;28;20051;-51
2024/01/02 03:16:15;;;;;;;14.48;4.95;;;7.10;99.90;;;;;;5042562;28;20398;-53
2024/01/02 03:18:41;;;;;;;11.85;4.78;;;7.10;99.90;;;;;;5057423;28;20121;-50
2024/01/02 03:21:10;;;;;;;12.80;5.03;;;7.10;99.90;;;;;;5060699;28;20040;-50
2024/01/02 03:23:37;;;;;;;12.63;4.57;;;7.10;99.90;;;;;;5061602;28;20833;-53
2024/01/02 03:26:03;;;;;;;9.93;4.68;;;7.20;99.90;;;;;;5054315;28;20047;-54
2024/01/02 03:28:29;;;;;;;14.98;5.47;;;7.10;99.90;;;;;;5042382;28;20047;-53
2024/01/02 03:30:55;;;;;;;10.00;4.22;;;7.20;99.90;;;;;;5060672;28;20739;-54
2024/01/02 03:33:21;;;;;;;9.50;3.95;;;7.20;99.90;;;;;;5057631;28;20048;-53
2024/01/02 03:35:47;;;;;;;16.05;4.30;;;7.20;99.90;;;;;;5059146;28;20051;-50
2024/01/02 03:38:13;;;;;;;7.72;3.72;;;7.10;99.90;;;;;;5059756;28;20044;-49
2024/01/02 03:40:39;;;;;;;10.15;4.30;;;7.10;99.90;;;;;;5061357;28;20130;-53
2024/01/02 03:43:05;;;;;;;8.68;3.92;;;7.20;99.90;;;;;;5055479;28;20041;-53
2024/01/02 03:45:31;;;;;;;12.23;4.10;;;7.10;99.90;;;;;;5060549;28;20158;-52
2024/01/02 03:47:57;;;;;;;11.38;4.47;;;7.10;99.90;;;;;;5062302;28;20781;-50
2024/01/02 03:50:23;;;;;;;14.85;4.28;;;7.10;99.90;;;;;;5059336;28;20483;-52
2024/01/02 03:52:50;;;;;;;10.27;4.47;;;7.10;99.90;;;;;;5060956;28;20067;-54
2024/01/02 03:55:15;;;;;;;7.53;4.18;;;7.10;99.90;;;;;;5043580;28;20047;-53
2024/01/02 03:57:41;;;;;;;9.95;4.15;;;7.10;99.90;;;;;;5058976;28;20060;-53
2024/01/02 04:00:08;;;;;;;9.18;3.85;;;7.00;99.90;;;;;;5059234;28;20550;-53
2024/01/02 04:02:34;;;;;;;11.75;4.18;;;7.10;99.90;;;;;;5061289;28;20568;-48
2024/01/02 04:05:00;;;;;;;9.27;3.70;;;7.00;99.90;;;;;;5060341;28;20528;-51
2024/01/02 04:07:25;;;;;;;13.27;3.83;;;7.10;99.90;;;;;;5060147;28;20044;-53
2024/01/02 04:09:51;;;;;;;10.60;3.78;;;7.10;99.90;;;;;;5065437;28;20048;-50
2024/01/02 04:12:17;;;;;;;10.25;3.30;;;7.00;99.90;;;;;;5061179;28;20236;-53
2024/01/02 04:14:43;;;;;;;7.22;3.20;;;7.00;99.90;;;;;;5061628;28;20477;-53
2024/01/02 04:17:09;;;;;;;9.20;3.45;;;7.10;99.90;;;;;;5059738;28;20040;-52
2024/01/02 04:19:34;;;;;;;9.60;3.75;;;7.10;99.90;;;;;;5060543;28;20041;-52
2024/01/02 04:22:00;;;;;;;12.65;4.28;;;7.00;99.90;;;;;;5057707;28;20036;-49
2024/01/02 04:24:26;;;;;;;15.43;4.93;;;7.10;99.90;;;;;;5041435;28;20040;-52
2024/01/02 04:26:52;;;;;;;10.52;5.20;;;7.10;99.90;;;;;;5058970;28;20044;-51
2024/01/02 04:29:18;;;;;;;9.48;4.40;;;7.00;99.90;;;;;;5058312;28;20075;-51
2024/01/02 04:31:44;;;;;;;7.32;4.38;;;7.00;99.90;;;;;;5055339;28;20060;-53
2024/01/02 04:34:10;;;;;;;14.00;4.60;;;7.10;99.90;;;;;;5060746;28;20040;-52
2024/01/02 04:36:36;;;;;;;13.82;4.50;;;6.90;99.90;;;;;;5059957;28;22007;-55
2024/01/02 04:39:03;;;;;;;12.70;4.30;;;7.00;99.90;;;;;;5062022;28;20047;-53
2024/01/02 04:41:28;;;;;;;8.88;4.32;;;7.00;99.90;;;;;;5056215;28;20657;-52
2024/01/02 04:43:54;;;;;;;12.77;4.40;;;7.00;99.90;;;;;;5063980;28;20028;-53
2024/01/02 04:46:20;;;;;;;12.68;3.58;;;7.00;99.90;;;;;;5060843;28;20075;-51
2024/01/02 04:48:46;;;;;;;11.70;3.58;;;7.10;99.90;;;;;;5059074;28;20140;-52
2024/01/02 04:51:12;;;;;;;13.75;3.60;;;7.10;99.90;;;;;;5056388;28;20040;-50
2024/01/02 04:53:37;;;;;;;17.90;3.90;;;7.10;99.90;;;;;;5057331;28;20044;-53
2024/01/02 04:56:04;;;;;;;12.07;3.25;;;7.00;99.90;;;;;;5064820;28;20040;-53
2024/01/02 04:58:29;;;;;;;11.98;3.70;;;7.10;99.90;;;;;;5057908;28;20558;-51
2024/01/02 05:00:55;;;;;;;11.70;3.05;;;7.10;99.90;;;;;;5062979;28;20036;-54
2024/01/02 05:03:21;;;;;;;6.13;3.00;;;7.00;99.90;;;;;;5064849;28;20040;-52
2024/01/02 05:05:46;;;;;;;8.02;3.22;;;7.10;99.90;;;;;;5060010;28;20087;-53
2024/01/02 05:08:12;;;;;;;9.52;2.55;;;7.20;99.90;;;;;;5063269;28;20037;-54
2024/01/02 05:10:38;;;;;;;7.50;2.15;;;7.00;99.90;;;;;;5063449;28;20055;-54
2024/01/02 05:13:04;;;;;;;6.28;2.30;;;7.20;99.90;;;;;;5058692;28;20041;-54
2024/01/02 05:15:29;;;;;;;9.35;2.72;;;7.10;99.90;;;;;;5065174;28;20367;-53
2024/01/02 05:17:55;;;;;;;7.57;2.78;;;7.10;99.90;;;;;;5063170;28;20443;-54
2024/01/02 05:20:21;;;;;;;5.82;2.30;;;7.10;99.90;;;;;;5064599;28;20288;-54
2024/01/02 05:22:46;;;;;;;7.07;2.60;;;7.10;99.90;;;;;;5058673;28;20752;-53
2024/01/02 05:25:13;;;;;;;7.43;2.78;;;7.00;99.90;;;;;;5056488;28;20374;-56
2024/01/02 05:27:39;;;;;;;8.45;2.38;;;7.00;99.90;;;;;;5044079;28;20123;-55
2024/01/02 05:30:06;;;;;;;4.93;2.05;;;7.10;99.90;;;;;;5063405;28;20046;-54
2024/01/02 05:32:32;;;;;;;5.88;2.22;;;7.10;99.90;;;;;;5056672;28;20043;-54
2024/01/02 05:34:57;;;;;;;8.57;2.75;;;7.00;99.90;;;;;;5046214;28;20044;-54
2024/01/02 05:37:23;;;;;;;3.35;2.35;;;7.00;99.90;;;;;;5061732;28;20071;-53
2024/01/02 05:39:49;;;;;;;7.13;2.40;;;7.10;99.90;;;;;;5062071;28;20055;-54
2024/01/02 05:42:15;;;;;;;6.95;2.50;;;7.00;99.90;;;;;;5061399;28;20043;-54
2024/01/02 05:44:40;;;;;;;6.22;2.55;;;7.10;99.90;;;;;;5060323;28;20105;-53
2024/01/02 05:47:06;;;;;;;5.50;2.10;;;7.00;99.90;;;;;;5041375;28;20514;-55
2024/01/02 05:49:32;;;;;;;6.00;1.92;;;7.10;99.90;;;;;;5059053;28;20040;-54
2024/01/02 05:51:58;;;;;;;3.92;2.00;;;7.10;99.90;;;;;;5060779;28;20140;-51
2024/01/02 05:54:23;;;;;;;6.90;2.10;;;7.10;99.90;;;;;;5062216;28;20166;-54
2024/01/02 05:56:50;;;;;;;5.40;1.77;;;7.00;99.90;;;;;;5059049;28;20136;-53
2024/01/02 05:59:15;;;;;;;5.00;1.90;;;7.10;99.90;;;;;;5057486;28;20122;-54
2024/01/02 06:01:41;;;;;;;2.47;1.63;;;7.00;99.90;;;;;;5063190;28;20418;-53
2024/01/02 06:04:07;;;;;;;3.67;1.65;;;7.00;99.90;;;;;;5062645;28;20036;-53
2024/01/02 06:06:32;;;;;;;2.10;1.40;;;7.00;99.90;;;;;;5063239;28;20080;-53
2024/01/02 06:08:58;;;;;;;1.42;1.30;;;7.00;99.90;;;;;;5061223;28;20036;-54
2024/01/02 06:11:24;;;;;;;4.85;1.52;;;7.10;99.90;;;;;;5055696;28;20090;-54
2024/01/02 06:13:50;;;;;;;3.90;1.70;;;7.10;99.90;;;;;;5060885;28;20059;-54
2024/01/02 06:16:16;;;;;;;2.10;1.55;;;7.00;99.90;;;;;;5057572;28;20479;-53
2024/01/02 06:18:41;;;;;;;4.82;1.70;;;7.10;99.90;;;;;;5059039;28;20045;-54
2024/01/02 06:21:07;;;;;;;3.08;1.85;;;7.10;99.90;;;;;;5061481;28;20037;-54
2024/01/02 06:23:33;;;;;;;3.50;1.70;;;7.10;99.90;;;;;;5060435;28;20059;-54
2024/01/02 06:26:00;;;;;;;3.42;1.83;;;7.10;99.90;;;;;;5062260;28;20101;-54
2024/01/02 06:28:25;;;;;;;5.63;2.05;;;7.10;99.90;;;;;;5060071;28;20488;-53
2024/01/02 06:30:51;;;;;;;3.55;1.60;;;7.10;99.90;;;;;;5060918;28;20041;-54
2024/01/02 06:33:17;;;;;;;4.00;1.52;;;7.00;99.90;;;;;;5059565;28;20445;-57
2024/01/02 06:35:43;;;;;;;2.72;1.42;;;7.10;99.90;;;;;;5058925;28;20044;-53
2024/01/02 06:38:09;;;;;;;3.47;1.80;;;7.10;99.90;;;;;;5044162;28;20047;-54
2024/01/02 06:40:37;;;;;;;2.83;1.40;;;7.00;99.90;;;;;;5055755;28;20454;-55
2024/01/02 06:43:04;;;;;;;2.57;1.40;;;7.10;99.90;;;;;;5060073;28;20533;-53
2024/01/02 06:45:31;;;;;;;2.30;1.13;;;7.20;99.90;;;;;;5060942;28;20482;-54
2024/01/02 06:47:57;;;;;;;3.45;1.45;;;7.20;99.90;;;;;;5059304;28;20534;-54
2024/01/02 06:50:23;;;;;;;1.10;1.00;;;7.20;99.90;;;;;;5061038;28;20581;-54
2024/01/02 06:52:49;;;;;;;1.20;1.08;;;7.20;99.90;;;;;;5057150;28;20043;-54
2024/01/02 06:55:15;;;;;;;1.40;1.17;;;7.20;99.90;;;;;;5059140;28;20036;-54
2024/01/02 06:57:40;;;;;;;2.00;1.20;;;7.10;99.90;;;;;;5062428;28;20131;-53
2024/01/02 07:00:07;;;;;;;1.77;1.00;;;7.20;99.90;;;;;;5057353;28;20059;-54
2024/01/02 07:02:33;;;;;;;2.42;1.00;;;7.20;99.90;;;;;;5060526;28;20032;-54
2024/01/02 07:05:03;;;;;;;2.47;0.90;;;7.10;99.90;;;;;;5056558;28;20044;-54
2024/01/02 07:07:28;;;;;;;1.20;1.10;;;7.20;99.90;;;;;;5054841;28;20469;-52
2024/01/02 07:09:54;;;;;;;1.08;1.00;;;7.20;99.90;;;;;;5044507;28;20041;-52
2024/01/02 07:12:20;;;;;;;4.63;1.13;;;7.40;99.90;;;;;;5059586;28;20062;-54
2024/01/02 07:14:47;;;;;;;1.45;0.93;;;7.30;99.90;;;;;;5055556;28;20051;-54
2024/01/02 07:17:15;;;;;;;1.40;0.95;;;7.30;99.90;;;;;;5055787;28;20123;-54
2024/01/02 07:19:41;;;;;;;1.20;1.10;;;7.20;99.90;;;;;;5041557;28;20055;-53
2024/01/02 07:22:07;;;;;;;2.92;1.23;;;7.20;99.90;;;;;;5066045;28;20040;-53
2024/01/02 07:24:34;;;;;;;1.15;1.00;;;7.30;99.90;;;;;;5055468;28;20036;-52
2024/01/02 07:26:59;;;;;;;1.85;0.90;;;7.30;99.90;;;;;;5054428;28;20072;-51
2024/01/02 07:29:26;;;;;;;1.70;1.00;;;7.30;99.90;;;;;;5055171;28;20112;-53
2024/01/02 07:31:51;;;;;;;1.85;1.30;;;7.20;99.90;;;;;;5059111;28;20093;-53
2024/01/02 07:34:17;;;;;;;1.50;1.20;;;7.20;99.90;;;;;;5040771;28;20052;-54
2024/01/02 07:36:43;;;;;;;1.50;1.00;;;7.20;99.90;;;;;;5056480;28;20428;-52
2024/01/02 07:39:09;;;;;;;1.67;1.10;;;7.30;99.90;;;;;;5060587;28;20430;-53
2024/01/02 07:41:35;;;;;;;1.83;1.45;;;7.40;99.90;;;;;;5059508;28;20120;-52
2024/01/02 07:44:03;;;;;;;1.05;0.95;;;7.30;99.90;;;;;;5058421;28;20040;-54
2024/01/02 07:46:29;;;;;;;1.83;0.95;;;7.50;99.90;;;;;;5060142;28;20040;-53
2024/01/02 07:48:55;;;;;;;1.63;1.00;;;7.60;99.90;;;;;;5058653;28;20391;-53
2024/01/02 07:51:21;;;;;;;1.40;1.30;;;7.50;99.90;;;;;;5058903;28;20033;-53
2024/01/02 07:53:47;;;;;;;2.65;1.33;;;7.60;99.90;;;;;;5069041;28;20043;-53
2024/01/02 07:56:12;;;;;;;1.70;1.60;;;7.50;99.90;;;;;;5062527;28;20553;-52
2024/01/02 07:58:38;;;;;;;1.73;1.48;;;7.50;99.90;;;;;;5043096;28;20525;-51
2024/01/02 08:01:04;;;;;;;1.27;1.17;;;7.70;99.90;;;;;;5054022;28;20075;-53
2024/01/02 08:03:29;;;;;;;1.65;1.30;;;7.70;99.90;;;;;;5061188;28;20044;-52
2024/01/02 08:05:55;;;;;;;1.88;1.40;;;7.70;99.90;;;;;;5059268;28;20059;-53
2024/01/02 08:08:21;;;;;;;1.90;1.52;;;7.80;99.90;;;;;;5042179;28;20478;-52
2024/01/02 08:10:46;;;;;;;1.92;1.73;;;8.00;99.90;;;;;;5059393;28;20123;-54
2024/01/02 08:13:12;;;;;;;2.97;2.03;;;7.90;99.90;;;;;;5039395;28;20044;-52
2024/01/02 08:15:38;;;;;;;2.10;1.90;;;8.00;99.90;;;;;;5048912;28;20076;-53
2024/01/02 08:18:04;;;;;;;2.30;2.10;;;7.90;99.90;;;;;;5057093;28;20070;-53
2024/01/02 08:20:30;;;;;;;8.43;2.20;;;7.90;99.90;;;;;;5061359;28;20095;-52
2024/01/02 08:22:56;;;;;;;2.80;2.45;;;8.10;99.90;;;;;;5059253;28;20837;-53
2024/01/02 08:25:23;;;;;;;2.47;2.28;;;8.10;99.90;;;;;;5056060;28;20043;-53
2024/01/02 08:27:50;;;;;;;3.47;2.55;;;8.00;99.90;;;;;;5058848;28;20133;-49
2024/01/02 08:30:16;;;;;;;2.85;2.20;;;8.00;99.90;;;;;;5043494;28;20451;-52
2024/01/02 08:32:42;;;;;;;3.47;2.45;;;8.20;99.90;;;;;;5059656;28;20060;-50
2024/01/02 08:35:07;;;;;;;3.88;2.78;;;8.30;99.90;;;;;;5059267;28;20515;-53
2024/01/02 08:37:33;;;;;;;3.90;2.55;;;8.30;99.90;;;;;;5060304;28;20133;-53
2024/01/02 08:39:59;;;;;;;4.00;3.00;;;8.20;99.90;;;;;;5056806;28;20333;-50
2024/01/02 08:42:25;;;;;;;5.70;3.28;;;8.40;99.90;;;;;;5040376;28;20053;-52
2024/01/02 08:44:51;;;;;;;9.90;3.33;;;8.50;99.90;;;;;;5055363;28;20058;-50
2024/01/02 08:47:17;;;;;;;8.25;4.05;;;8.70;99.90;;;;;;5041782;28;20402;-53
2024/01/02 08:49:42;;;;;;;12.50;3.80;;;8.70;99.90;;;;;;5038647;28;20045;-50
2024/01/02 08:52:08;;;;;;;8.68;4.15;;;8.80;99.90;;;;;;5058145;28;20045;-51
2024/01/02 08:54:34;;;;;;;13.68;3.92;;;8.80;99.90;;;;;;5055013;28;20036;-52
2024/01/02 08:57:01;;;;;;;11.65;3.85;;;9.00;99.90;;;;;;5060579;28;20119;-53
2024/01/02 08:59:27;;;;;;;14.18;3.85;;;8.90;99.90;;;;;;5060904;28;20072;-52
2024/01/02 09:01:52;;;;;;;10.98;3.42;;;9.10;99.90;;;;;;5059409;28;20111;-53
2024/01/02 09:04:18;;;;;;;17.67;3.85;;;9.20;99.90;;;;;;5040575;28;20154;-51
2024/01/02 09:06:45;;;;;;;17.42;2.92;;;9.40;99.90;;;;;;5056707;28;20491;-54
2024/01/02 09:09:11;;;;;;;20.35;2.85;;;9.30;99.90;;;;;;5057500;28;20039;-51
2024/01/02 09:11:37;;;;;;;19.38;3.22;;;9.60;99.90;;;;;;5062466;28;20044;-49
2024/01/02 09:14:03;;;;;;;17.25;3.38;;;9.70;99.90;;;;;;5054499;28;20037;-52
2024/01/02 09:16:30;;;;;;;21.10;3.70;;;9.70;99.90;;;;;;5059766;28;20047;-53
2024/01/02 09:18:56;;;;;;;14.68;2.72;;;9.70;99.90;;;;;;5058543;28;20033;-52
2024/01/02 09:21:22;;;;;;;21.45;2.83;;;9.70;99.90;;;;;;5055776;28;20033;-53
2024/01/02 09:23:48;;;;;;;20.08;2.80;;;9.90;99.90;;;;;;5053274;28;20059;-53
2024/01/02 09:26:19;;;;;;;15.65;3.13;;;10.00;99.90;;;;;;5051421;28;20046;-54
2024/01/02 09:28:45;;;;;;;16.98;2.63;;;9.90;99.90;;;;;;5059927;28;20048;-51
2024/01/02 09:31:12;;;;;;;25.20;3.78;;;10.00;99.90;;;;;;5058202;28;20118;-52
2024/01/02 09:33:39;;;;;;;13.63;2.38;;;10.00;99.90;;;;;;5058150;28;20542;-53
2024/01/02 09:36:10;;;;;;;16.27;2.80;;;10.10;99.90;;;;;;5060848;28;20053;-53
2024/01/02 09:38:39;;;;;;;22.98;2.72;;;10.30;99.90;;;;;;5057114;28;20037;-54
2024/01/02 09:41:24;;;;;;;21.88;3.17;;;10.30;99.90;;;;;;5066970;28;20036;-53
2024/01/02 09:44:22;;;;;;;17.50;3.03;;;10.40;99.90;;;;;;5058446;28;20040;-52
2024/01/02 09:47:08;;;;;;;23.33;2.67;;;10.30;99.90;;;;;;5058437;28;20033;-53
2024/01/02 09:50:12;;;;;;;22.25;2.85;;;10.30;99.90;;;;;;5062256;28;20495;-51
2024/01/02 09:52:57;;;;;;;21.05;3.75;;;10.50;99.90;;;;;;5057245;28;20036;-52
2024/01/02 09:55:48;;;;;;;20.30;3.03;;;10.40;99.90;;;;;;5057143;28;20040;-53
2024/01/02 09:58:25;;;;;;;36.17;3.00;;;10.40;99.90;;;;;;5056608;28;20052;-51
2024/01/02 10:01:15;;;;;;;22.23;3.30;;;10.40;99.90;;;;;;5061942;28;20055;-54
2024/01/02 10:04:02;;;;;;;23.67;2.85;;;10.60;99.90;;;;;;5057532;28;20036;-53
2024/01/02 10:06:46;;;;;;;23.77;3.28;;;10.60;99.90;;;;;;5056692;28;20068;-53
2024/01/02 10:09:43;;;;;;;20.65;3.25;;;10.70;99.90;;;;;;5058518;28;20444;-53
2024/01/02 10:12:25;;;;;;;18.88;3.40;;;10.60;99.90;;;;;;5061552;28;20365;-52
2024/01/02 10:15:12;;;;;;;24.83;3.53;;;10.60;99.90;;;;;;5051010;28;20048;-53
2024/01/02 10:17:38;;;;;;;24.63;3.22;;;10.60;99.90;;;;;;5061256;28;20128;-54
2024/01/02 10:20:12;;;;;;;19.10;3.67;;;10.80;99.90;;;;;;5062662;28;20044;-53
2024/01/02 10:23:01;;;;;;;15.60;2.30;;;10.70;99.90;;;;;;5056886;28;20045;-52
2024/01/02 10:25:29;;;;;;;21.10;3.40;;;10.70;99.90;;;;;;5054357;28;20072;-53
2024/01/02 10:28:05;;;;;;;19.52;2.75;;;10.80;99.90;;;;;;5058801;28;20045;-52
2024/01/02 10:30:42;;;;;;;20.02;3.28;;;10.80;99.90;;;;;;5058589;28;20127;-53
2024/01/02 10:33:25;;;;;;;27.42;3.90;;;10.70;99.90;;;;;;5053907;28;20052;-53
2024/01/02 10:35:58;;;;;;;15.30;2.75;;;10.90;99.90;;;;;;5052855;28;20525;-54
2024/01/02 10:38:24;;;;;;;25.17;4.15;;;10.90;99.90;;;;;;5056068;28;20431;-53
2024/01/02 10:40:52;;;;;;;23.73;4.40;;;10.80;99.90;;;;;;5062640;28;20085;-53
2024/01/02 10:43:30;;;;;;;19.13;3.45;;;10.80;99.90;;;;;;5060094;28;20037;-53
2024/01/02 10:46:05;;;;;;;19.92;3.90;;;11.00;99.90;;;;;;5057224;28;20140;-53
2024/01/02 10:48:57;;;;;;;23.90;4.03;;;11.00;99.90;;;;;;5054839;28;20052;-53
2024/01/02 10:51:39;;;;;;;22.88;3.65;;;10.80;99.90;;;;;;5053417;28;20051;-50
2024/01/02 10:54:11;;;;;;;24.05;3.40;;;11.00;99.90;;;;;;5058714;28;20115;-52
2024/01/02 10:56:49;;;;;;;19.58;3.80;;;10.80;99.90;;;;;;5061674;28;20040;-53
2024/01/02 10:59:33;;;;;;;29.38;4.70;;;10.80;99.90;;;;;;5056634;28;20037;-54
2024/01/02 11:02:05;;;;;;;22.08;3.85;;;10.90;99.90;;;;;;5055127;28;20410;-53
2024/01/02 11:05:09;;;;;;;22.98;4.38;;;10.80;99.90;;;;;;5061039;28;20178;-53
2024/01/02 11:07:39;;;;;;;22.42;3.85;;;11.10;99.90;;;;;;5041069;28;20132;-52
2024/01/02 11:10:13;;;;;;;25.05;3.90;;;11.00;99.90;;;;;;5061209;28;20134;-52
2024/01/02 11:13:03;;;;;;;20.42;3.72;;;11.10;99.90;;;;;;5060166;28;20380;-52
2024/01/02 11:15:34;;;;;;;22.73;4.35;;;11.10;99.90;;;;;;5061710;28;20510;-53
2024/01/02 11:18:01;;;;;;;24.55;3.00;;;11.10;99.90;;;;;;5059709;28;20598;-52
2024/01/02 11:20:36;;;;;;;18.42;2.83;;;11.10;99.90;;;;;;5060885;28;20037;-54
2024/01/02 11:23:15;;;;;;;22.98;4.10;;;11.20;99.90;;;;;;5059792;28;20041;-50
2024/01/02 11:26:14;;;;;;;19.80;3.63;;;11.20;99.90;;;;;;5057918;28;20040;-53
2024/01/02 11:28:42;;;;;;;27.08;5.28;;;11.20;99.90;;;;;;5057573;28;20793;-52
2024/01/02 11:31:10;;;;;;;24.27;6.45;;;11.20;99.90;;;;;;5058993;28;20462;-53
2024/01/02 11:33:55;;;;;;;32.67;8.48;;;11.20;99.90;;;;;;5057349;28;20519;-53
2024/01/02 11:36:21;;;;;;;35.67;9.75;;;11.30;99.90;;;;;;5058007;28;20063;-53
2024/01/02 11:39:40;;;;;;;31.55;10.23;;;11.30;99.90;;;;;;5060581;28;20142;-53
2024/01/02 11:42:43;;;;;;;39.72;11.70;;;11.30;99.90;;;;;;4956260;28;20499;-51
2024/01/02 11:45:15;;;;;;;38.53;11.80;;;11.30;99.90;;;;;;4956874;28;20533;-50
2024/01/02 11:47:50;;;;;;;36.75;11.55;;;11.40;99.90;;;;;;5034152;28;20924;-52
2024/01/02 11:50:16;;;;;;;42.75;11.73;;;11.40;99.90;;;;;;5060087;28;20032;-50
2024/01/02 11:52:57;;;;;;;42.08;12.05;;;11.30;99.90;;;;;;5041245;28;20074;-53
2024/01/02 11:55:33;;;;;;;37.00;11.82;;;11.40;99.90;;;;;;5054682;28;20094;-52
2024/01/02 11:58:11;;;;;;;40.80;12.48;;;11.40;99.90;;;;;;5058805;28;20663;-53
2024/01/02 12:01:08;;;;;;;31.52;10.20;;;11.30;99.90;;;;;;5056388;28;20059;-54
2024/01/02 12:03:55;;;;;;;37.67;11.35;;;11.40;99.90;;;;;;5056841;28;20456;-52
2024/01/02 12:06:32;;;;;;;40.38;11.10;;;11.40;99.90;;;;;;5055033;28;20102;-53
2024/01/02 12:09:09;;;;;;;37.70;10.52;;;11.40;99.90;;;;;;5059285;28;20048;-53
2024/01/02 12:11:39;;;;;;;32.10;9.63;;;11.40;99.90;;;;;;5060554;28;20044;-53
2024/01/02 12:14:30;;;;;;;40.40;9.00;;;11.40;99.90;;;;;;5058179;28;20036;-53
2024/01/02 12:17:00;;;;;;;34.20;7.88;;;11.40;99.90;;;;;;5006368;28;20114;-53
2024/01/02 12:19:28;;;;;;;34.00;7.35;;;11.40;99.90;;;;;;5060230;28;20459;-53
2024/01/02 12:21:55;;;;;;;28.15;6.55;;;11.50;99.90;;;;;;5055998;28;20035;-53
2024/01/02 12:24:22;;;;;;;28.88;7.05;;;11.40;99.90;;;;;;5058359;28;21358;-53
2024/01/02 12:26:50;;;;;;;35.63;8.50;;;11.40;99.90;;;;;;5040989;28;20114;-52
2024/01/02 12:29:37;;;;;;;32.42;8.63;;;11.50;99.90;;;;;;5042066;28;20048;-53
2024/01/02 12:32:27;;;;;;;24.48;6.18;;;11.50;99.90;;;;;;5059891;28;20101;-50
2024/01/02 12:35:07;;;;;;;26.70;6.20;;;11.40;99.90;;;;;;5060538;28;20068;-51
2024/01/02 12:37:40;;;;;;;30.90;5.30;;;11.50;99.90;;;;;;5057893;28;20603;-52
2024/01/02 12:40:10;;;;;;;23.95;5.47;;;11.40;99.90;;;;;;5059149;28;20510;-53
2024/01/02 12:42:46;;;;;;;22.73;4.68;;;11.50;99.90;;;;;;5056059;28;20044;-54
2024/01/02 12:45:17;;;;;;;23.95;5.10;;;11.60;99.90;;;;;;5057655;28;20075;-53
2024/01/02 12:47:46;;;;;;;31.40;5.13;;;11.40;99.90;;;;;;5051316;28;20048;-53
2024/01/02 12:50:13;;;;;;;24.17;4.57;;;11.30;99.90;;;;;;5060586;28;20737;-53
2024/01/02 12:52:47;;;;;;;27.05;5.38;;;11.30;99.90;;;;;;5059309;28;20164;-54
2024/01/02 12:55:14;;;;;;;21.42;4.72;;;11.30;99.90;;;;;;5049350;28;20521;-53
2024/01/02 12:57:41;;;;;;;22.88;4.80;;;11.40;99.90;;;;;;5058804;28;20044;-53